createdAt,value
2018-05-10T00:00:18.252Z,20.69
2018-05-10T00:00:58.643Z,20.63
2018-05-10T00:01:39.232Z,20.63
2018-05-10T00:02:19.622Z,20.6
2018-05-10T00:03:00.485Z,20.5
2018-05-10T00:03:40.963Z,20.56
2018-05-10T00:04:21.496Z,20.53
2018-05-10T00:05:01.878Z,20.5
2018-05-10T00:05:42.400Z,20.51
2018-05-10T00:06:22.842Z,20.48
2018-05-10T00:07:03.595Z,20.51
2018-05-10T00:07:44.493Z,20.48
2018-05-10T00:08:25.046Z,20.54
2018-05-10T00:09:05.396Z,20.51
2018-05-10T00:09:45.881Z,20.44
2018-05-10T00:10:27.378Z,20.48
2018-05-10T00:11:08.219Z,20.48
2018-05-10T00:11:48.276Z,20.48
2018-05-10T00:12:29.033Z,20.48
2018-05-10T00:13:09.415Z,20.56
2018-05-10T00:13:49.866Z,20.56
2018-05-10T00:14:30.763Z,20.53
2018-05-10T00:15:11.195Z,20.54
2018-05-10T00:15:51.555Z,20.41
2018-05-10T00:16:32.018Z,20.46
2018-05-10T00:17:12.525Z,20.41
2018-05-10T00:17:54.664Z,20.48
2018-05-10T00:18:35.237Z,20.41
2018-05-10T00:19:15.757Z,20.46
2018-05-10T00:19:56.369Z,20.42
2018-05-10T00:20:37.260Z,20.44
2018-05-10T00:21:17.822Z,20.38
2018-05-10T00:21:58.285Z,20.44
2018-05-10T00:22:39.013Z,20.42
2018-05-10T00:23:19.687Z,20.38
2018-05-10T00:24:00.405Z,20.38
2018-05-10T00:24:40.470Z,20.34
2018-05-10T00:25:20.920Z,20.41
2018-05-10T00:27:09.167Z,20.31
2018-05-10T00:27:51.844Z,20.17
2018-05-10T00:28:32.295Z,20.13
2018-05-10T00:29:12.888Z,20.13
2018-05-10T00:29:53.467Z,20.13
2018-05-10T00:30:33.984Z,20.08
2018-05-10T00:31:14.957Z,20.02
2018-05-10T00:31:55.630Z,19.98
2018-05-10T00:32:36.079Z,19.98
2018-05-10T00:33:16.727Z,20
2018-05-10T00:33:57.770Z,20.01
2018-05-10T00:34:37.861Z,19.97
2018-05-10T00:35:18.728Z,19.97
2018-05-10T00:35:59.868Z,19.94
2018-05-10T00:36:39.878Z,20.02
2018-05-10T00:37:20.264Z,20.02
2018-05-10T00:38:01.516Z,19.97
2018-05-10T00:38:41.883Z,20.08
2018-05-10T00:39:22.259Z,19.98
2018-05-10T00:40:02.878Z,19.95
2018-05-10T00:40:43.138Z,19.9
2018-05-10T00:41:24.093Z,19.94
2018-05-10T00:42:05.362Z,19.89
2018-05-10T00:42:45.792Z,19.79
2018-05-10T00:43:26.357Z,19.82
2018-05-10T00:44:06.740Z,19.79
2018-05-10T00:44:47.525Z,19.76
2018-05-10T00:45:28.118Z,19.8
2018-05-10T00:46:08.850Z,19.94
2018-05-10T00:46:49.237Z,19.9
2018-05-10T00:47:29.675Z,19.87
2018-05-10T00:48:10.075Z,20.01
2018-05-10T00:48:50.516Z,19.92
2018-05-10T00:49:30.937Z,19.97
2018-05-10T00:50:11.445Z,20
2018-05-10T00:50:51.785Z,19.95
2018-05-10T00:51:32.350Z,20.08
2018-05-10T00:52:13.542Z,20.02
2018-05-10T00:52:54.911Z,20.1
2018-05-10T00:53:35.422Z,19.97
2018-05-10T00:54:16.801Z,20.05
2018-05-10T00:54:57.182Z,20.02
2018-05-10T00:55:37.757Z,20.01
2018-05-10T00:56:19.225Z,20.12
2018-05-10T00:57:00.196Z,19.97
2018-05-10T00:57:41.903Z,19.94
2018-05-10T00:58:22.399Z,19.94
2018-05-10T00:59:03.235Z,20.05
2018-05-10T00:59:43.755Z,19.97
2018-05-10T01:00:24.338Z,19.98
2018-05-10T01:01:04.769Z,19.92
2018-05-10T01:01:45.300Z,20.04
2018-05-10T01:02:25.767Z,19.95
2018-05-10T01:03:06.243Z,20.02
2018-05-10T01:03:46.661Z,19.95
2018-05-10T01:04:27.406Z,20.1
2018-05-10T01:05:08.413Z,20.04
2018-05-10T01:05:49.479Z,20.05
2018-05-10T01:07:42.773Z,19.98
2018-05-10T01:09:59.120Z,20.02
2018-05-10T01:10:39.384Z,20.08
2018-05-10T01:11:19.732Z,20.05
2018-05-10T01:12:00.171Z,20.08
2018-05-10T01:12:40.987Z,20.1
2018-05-10T01:13:21.404Z,20.08
2018-05-10T01:14:02.451Z,19.97
2018-05-10T01:14:42.757Z,19.94
2018-05-10T01:15:23.314Z,19.89
2018-05-10T01:16:04.281Z,19.8
2018-05-10T01:16:45.436Z,19.79
2018-05-10T01:17:25.812Z,19.75
2018-05-10T01:19:42.195Z,19.75
2018-05-10T01:20:22.529Z,19.87
2018-05-10T01:22:12.800Z,19.89
2018-05-10T01:22:58.667Z,19.92
2018-05-10T01:23:39.566Z,19.94
2018-05-10T01:24:20.917Z,19.87
2018-05-10T01:25:01.327Z,19.9
2018-05-10T01:25:41.874Z,19.9
2018-05-10T01:26:22.229Z,19.89
2018-05-10T01:27:02.697Z,19.9
2018-05-10T01:27:43.166Z,19.9
2018-05-10T01:28:24.209Z,19.92
2018-05-10T01:29:04.415Z,20.04
2018-05-10T01:29:45.818Z,19.98
2018-05-10T01:30:26.241Z,19.98
2018-05-10T01:31:07.742Z,19.86
2018-05-10T01:31:48.465Z,19.9
2018-05-10T01:32:30.147Z,19.87
2018-05-10T01:33:11.666Z,19.87
2018-05-10T01:33:52.243Z,19.89
2018-05-10T01:34:32.827Z,19.86
2018-05-10T01:38:56.998Z,19.82
2018-05-10T01:40:45.943Z,19.75
2018-05-10T01:41:27.909Z,19.72
2018-05-10T01:42:08.919Z,19.72
2018-05-10T01:42:49.646Z,19.61
2018-05-10T01:43:30.217Z,19.7
2018-05-10T01:44:10.944Z,19.78
2018-05-10T01:44:51.937Z,19.62
2018-05-10T01:45:34.280Z,19.71
2018-05-10T01:46:14.624Z,19.76
2018-05-10T01:46:55.875Z,19.71
2018-05-10T01:47:36.182Z,19.68
2018-05-10T01:48:16.813Z,19.79
2018-05-10T01:48:57.071Z,19.72
2018-05-10T01:49:37.759Z,19.68
2018-05-10T01:50:18.307Z,19.6
2018-05-10T01:50:58.764Z,19.61
2018-05-10T01:51:39.141Z,19.61
2018-05-10T01:52:19.649Z,19.61
2018-05-10T01:53:00.258Z,19.62
2018-05-10T01:53:40.667Z,19.55
2018-05-10T01:54:21.852Z,19.61
2018-05-10T01:55:02.224Z,19.5
2018-05-10T01:55:43.473Z,19.55
2018-05-10T01:56:24.020Z,19.45
2018-05-10T01:57:04.676Z,19.58
2018-05-10T01:57:44.959Z,19.49
2018-05-10T01:58:25.413Z,19.52
2018-05-10T01:59:06.764Z,19.53
2018-05-10T01:59:47.111Z,19.5
2018-05-10T02:00:28.672Z,19.46
2018-05-10T02:01:09.118Z,19.46
2018-05-10T02:01:49.770Z,19.52
2018-05-10T02:02:30.377Z,19.47
2018-05-10T02:03:10.801Z,19.42
2018-05-10T02:03:51.384Z,19.39
2018-05-10T02:04:32.256Z,19.38
2018-05-10T02:05:12.935Z,19.38
2018-05-10T02:08:59.127Z,19.34
2018-05-10T02:09:40.479Z,19.27
2018-05-10T02:10:20.883Z,19.28
2018-05-10T02:11:01.682Z,19.3
2018-05-10T02:11:42.096Z,19.27
2018-05-10T02:12:22.670Z,19.32
2018-05-10T02:13:05.217Z,19.3
2018-05-10T02:13:45.640Z,19.31
2018-05-10T02:14:26.306Z,19.24
2018-05-10T02:15:06.798Z,19.39
2018-05-10T02:15:47.209Z,19.24
2018-05-10T02:16:27.654Z,19.25
2018-05-10T02:17:08.045Z,19.21
2018-05-10T02:17:48.454Z,19.23
2018-05-10T02:18:29.154Z,19.2
2018-05-10T02:19:10.378Z,19.1
2018-05-10T02:19:50.137Z,19.16
2018-05-10T02:20:30.562Z,19.16
2018-05-10T02:21:10.982Z,19.17
2018-05-10T02:21:51.418Z,19.16
2018-05-10T02:22:32.089Z,19.09
2018-05-10T02:23:12.553Z,19.1
2018-05-10T02:23:53.906Z,19.12
2018-05-10T02:24:35.235Z,19.21
2018-05-10T02:25:15.111Z,19.21
2018-05-10T02:25:55.408Z,19.17
2018-05-10T02:26:35.835Z,19.17
2018-05-10T02:27:16.555Z,19.21
2018-05-10T02:27:57.559Z,19.1
2018-05-10T02:28:37.930Z,19.07
2018-05-10T02:29:18.356Z,19.13
2018-05-10T02:29:59.408Z,19.05
2018-05-10T02:30:39.938Z,19.07
2018-05-10T02:31:20.433Z,19.12
2018-05-10T02:32:00.917Z,19.06
2018-05-10T02:32:41.263Z,19.02
2018-05-10T02:33:21.844Z,19.02
2018-05-10T02:34:02.943Z,19.02
2018-05-10T02:34:43.785Z,19.07
2018-05-10T02:35:24.446Z,18.99
2018-05-10T02:36:05.320Z,19.05
2018-05-10T02:36:45.779Z,19.05
2018-05-10T02:37:26.487Z,18.97
2018-05-10T02:38:06.987Z,18.96
2018-05-10T02:38:47.386Z,19.01
2018-05-10T02:39:28.213Z,19.07
2018-05-10T02:40:08.372Z,18.97
2018-05-10T02:40:48.703Z,18.99
2018-05-10T02:41:29.124Z,18.94
2018-05-10T02:42:09.993Z,18.96
2018-05-10T02:42:50.735Z,18.94
2018-05-10T02:43:31.602Z,18.91
2018-05-10T02:44:12.190Z,18.94
2018-05-10T02:44:52.578Z,19.06
2018-05-10T02:45:33.017Z,18.9
2018-05-10T02:46:13.626Z,18.9
2018-05-10T02:46:54.019Z,18.9
2018-05-10T02:47:34.488Z,18.83
2018-05-10T02:48:15.077Z,18.9
2018-05-10T02:48:55.433Z,18.78
2018-05-10T02:49:37.038Z,18.84
2018-05-10T02:50:17.444Z,18.86
2018-05-10T02:50:58.153Z,18.86
2018-05-10T02:51:38.610Z,18.84
2018-05-10T02:52:18.969Z,18.71
2018-05-10T02:52:59.890Z,18.59
2018-05-10T02:53:40.301Z,18.49
2018-05-10T02:54:20.588Z,18.56
2018-05-10T02:55:01.035Z,18.46
2018-05-10T02:55:42.222Z,18.44
2018-05-10T02:56:22.324Z,18.51
2018-05-10T02:57:02.734Z,18.41
2018-05-10T02:57:43.116Z,18.49
2018-05-10T02:58:23.715Z,18.49
2018-05-10T02:59:05.004Z,18.39
2018-05-10T02:59:45.776Z,18.49
2018-05-10T03:00:26.325Z,18.5
2018-05-10T03:01:06.753Z,18.46
2018-05-10T03:01:47.320Z,18.51
2018-05-10T03:02:28.224Z,18.51
2018-05-10T03:03:09.263Z,18.39
2018-05-10T03:03:49.649Z,18.42
2018-05-10T03:04:30.047Z,18.39
2018-05-10T03:05:10.876Z,18.29
2018-05-10T03:05:51.077Z,18.31
2018-05-10T03:06:31.430Z,18.41
2018-05-10T03:07:13.649Z,18.34
2018-05-10T03:07:54.227Z,18.29
2018-05-10T03:08:34.828Z,18.34
2018-05-10T03:09:15.275Z,18.32
2018-05-10T03:09:56.024Z,18.21
2018-05-10T03:10:36.478Z,18.28
2018-05-10T03:11:17.092Z,18.23
2018-05-10T03:11:57.934Z,18.25
2018-05-10T03:12:38.569Z,18.17
2018-05-10T03:13:18.992Z,18.16
2018-05-10T03:13:59.817Z,18.19
2018-05-10T03:14:40.237Z,18.09
2018-05-10T03:15:20.945Z,18.13
2018-05-10T03:16:01.564Z,18.14
2018-05-10T03:16:42.321Z,18.1
2018-05-10T03:17:23.818Z,18.17
2018-05-10T03:18:03.881Z,18.13
2018-05-10T03:18:44.679Z,18.1
2018-05-10T03:19:25.014Z,18.07
2018-05-10T03:20:05.641Z,17.98
2018-05-10T03:20:46.333Z,17.92
2018-05-10T03:21:27.053Z,17.84
2018-05-10T03:22:07.355Z,17.8
2018-05-10T03:22:47.795Z,17.83
2018-05-10T03:23:29.787Z,17.8
2018-05-10T03:24:10.063Z,17.77
2018-05-10T03:24:50.806Z,17.81
2018-05-10T03:25:31.250Z,17.73
2018-05-10T03:26:11.924Z,17.8
2018-05-10T03:26:52.511Z,17.62
2018-05-10T03:27:33.020Z,17.65
2018-05-10T03:28:13.368Z,17.63
2018-05-10T03:28:53.850Z,17.65
2018-05-10T03:29:34.181Z,17.58
2018-05-10T03:30:14.639Z,17.62
2018-05-10T03:30:55.763Z,17.62
2018-05-10T03:31:35.944Z,17.65
2018-05-10T03:32:16.986Z,17.57
2018-05-10T03:32:57.494Z,17.63
2018-05-10T03:33:38.277Z,17.54
2018-05-10T03:34:21.468Z,17.49
2018-05-10T03:35:02.231Z,17.55
2018-05-10T03:35:42.361Z,17.55
2018-05-10T03:36:22.778Z,17.49
2018-05-10T03:37:04.359Z,17.47
2018-05-10T03:37:45.702Z,17.51
2018-05-10T03:38:26.443Z,17.46
2018-05-10T03:39:07.215Z,17.47
2018-05-10T03:39:50.103Z,17.45
2018-05-10T03:40:31.260Z,17.46
2018-05-10T03:41:11.688Z,17.4
2018-05-10T03:41:52.066Z,17.35
2018-05-10T03:42:32.626Z,17.33
2018-05-10T03:43:13.418Z,17.32
2018-05-10T03:43:54.012Z,17.33
2018-05-10T03:44:35.011Z,17.36
2018-05-10T03:45:17.368Z,17.33
2018-05-10T03:45:56.699Z,17.27
2018-05-10T03:46:39.900Z,17.35
2018-05-10T03:47:20.506Z,17.32
2018-05-10T03:48:01.017Z,17.32
2018-05-10T03:48:41.656Z,17.32
2018-05-10T03:49:22.556Z,17.28
2018-05-10T03:50:02.994Z,17.35
2018-05-10T03:50:44.715Z,17.27
2018-05-10T03:52:43.588Z,17.17
2018-05-10T03:53:25.174Z,17.14
2018-05-10T03:54:06.096Z,17.07
2018-05-10T03:54:47.453Z,17.15
2018-05-10T03:55:27.909Z,17.14
2018-05-10T03:56:09.312Z,17.15
2018-05-10T03:56:49.715Z,17.17
2018-05-10T03:57:30.931Z,17.12
2018-05-10T03:58:11.127Z,17.15
2018-05-10T03:58:51.605Z,17.14
2018-05-10T03:59:32.351Z,17.06
2018-05-10T04:00:12.621Z,17.14
2018-05-10T04:00:53.001Z,17.14
2018-05-10T04:01:35.025Z,17.15
2018-05-10T04:02:16.119Z,17.15
2018-05-10T04:02:57.578Z,17.17
2018-05-10T04:03:38.020Z,17.18
2018-05-10T04:41:41.248Z,16.47
2018-05-10T04:42:27.820Z,16.4
2018-05-10T04:43:08.991Z,16.45
2018-05-10T04:43:49.697Z,16.45
2018-05-10T04:44:29.991Z,16.36
2018-05-10T04:45:10.864Z,16.36
2018-05-10T04:45:52.667Z,16.4
2018-05-10T04:46:33.213Z,16.34
2018-05-10T04:47:13.637Z,16.36
2018-05-10T04:47:54.215Z,16.42
2018-05-10T04:48:34.570Z,16.47
2018-05-10T04:49:15.065Z,16.47
2018-05-10T04:49:55.614Z,16.42
2018-05-10T04:50:36.739Z,16.51
2018-05-10T04:51:17.356Z,16.48
2018-05-10T04:51:58.176Z,16.55
2018-05-10T04:52:38.784Z,16.54
2018-05-10T04:53:19.510Z,16.48
2018-05-10T04:53:59.978Z,16.52
2018-05-10T04:54:44.145Z,16.54
2018-05-10T04:55:24.790Z,16.47
2018-05-10T04:56:05.167Z,16.55
2018-05-10T04:56:45.629Z,16.54
2018-05-10T04:57:28.280Z,16.55
2018-05-10T04:58:08.696Z,16.55
2018-05-10T04:58:49.199Z,16.55
2018-05-10T04:59:29.809Z,16.51
2018-05-10T05:00:10.899Z,16.63
2018-05-10T05:00:52.492Z,16.63
2018-05-10T05:01:32.572Z,16.7
2018-05-10T05:02:13.047Z,16.75
2018-05-10T05:02:53.671Z,16.75
2018-05-10T05:03:35.156Z,16.85
2018-05-10T05:04:15.645Z,16.96
2018-05-10T05:04:56.730Z,16.91
2018-05-10T05:05:37.269Z,16.88
2018-05-10T05:06:17.775Z,16.99
2018-05-10T05:06:58.245Z,17.02
2018-05-10T05:07:38.576Z,17.02
2018-05-10T05:08:19.108Z,16.91
2018-05-10T05:08:59.616Z,17.02
2018-05-10T05:09:41.619Z,17.03
2018-05-10T05:10:22.415Z,17.12
2018-05-10T05:11:02.735Z,17.09
2018-05-10T05:11:43.432Z,17.1
2018-05-10T05:12:24.064Z,17.12
2018-05-10T05:13:04.834Z,17.14
2018-05-10T05:13:46.006Z,17.14
2018-05-10T05:14:27.714Z,17.14
2018-05-10T05:15:08.492Z,17.25
2018-05-10T05:15:49.215Z,17.27
2018-05-10T05:16:30.676Z,17.27
2018-05-10T05:17:10.967Z,17.27
2018-05-10T05:17:53.178Z,17.27
2018-05-10T05:18:35.147Z,17.28
2018-05-10T05:19:16.870Z,17.43
2018-05-10T05:19:56.899Z,17.47
2018-05-10T05:20:38.208Z,17.43
2018-05-10T05:21:21.887Z,17.47
2018-05-10T05:22:02.701Z,17.47
2018-05-10T05:22:43.316Z,17.46
2018-05-10T05:23:23.746Z,17.49
2018-05-10T05:24:05.538Z,17.49
2018-05-10T05:24:48.392Z,17.49
2018-05-10T05:25:31.128Z,17.51
2018-05-10T05:26:11.565Z,17.55
2018-05-10T05:26:52.445Z,17.6
2018-05-10T05:27:33.063Z,17.65
2018-05-10T05:28:13.448Z,17.7
2018-05-10T05:28:54.985Z,17.74
2018-05-10T05:29:34.363Z,17.83
2018-05-10T05:30:14.855Z,17.81
2018-05-10T05:30:55.492Z,17.92
2018-05-10T05:31:36.219Z,17.83
2018-05-10T05:32:16.671Z,17.94
2018-05-10T05:32:58.921Z,18.04
2018-05-10T05:33:40.348Z,18.14
2018-05-10T05:34:20.904Z,18.17
2018-05-10T05:35:01.516Z,18.17
2018-05-10T05:35:41.949Z,18.2
2018-05-10T05:36:22.630Z,18.13
2018-05-10T05:37:02.959Z,18.19
2018-05-10T05:37:44.893Z,18.19
2018-05-10T05:38:26.306Z,18.26
2018-05-10T05:39:06.704Z,18.16
2018-05-10T05:39:47.288Z,18.25
2018-05-10T05:40:28.092Z,18.31
2018-05-10T05:41:08.391Z,18.28
2018-05-10T05:41:49.874Z,18.31
2018-05-10T05:42:30.868Z,18.32
2018-05-10T05:43:12.418Z,18.31
2018-05-10T05:43:52.958Z,18.29
2018-05-10T05:44:36.203Z,18.26
2018-05-10T05:45:16.599Z,18.2
2018-05-10T05:45:57.117Z,18.1
2018-05-10T05:46:37.735Z,18.16
2018-05-10T05:47:18.043Z,18.16
2018-05-10T05:47:58.781Z,18.14
2018-05-10T05:48:39.577Z,18.16
2018-05-10T05:49:19.791Z,18.13
2018-05-10T05:50:00.337Z,18.04
2018-05-10T05:50:41.567Z,18.14
2018-05-10T05:51:21.892Z,18.17
2018-05-10T05:52:02.380Z,18.07
2018-05-10T05:52:43.389Z,18.14
2018-05-10T05:53:23.696Z,18.13
2018-05-10T05:54:04.165Z,18.09
2018-05-10T05:54:44.804Z,18.07
2018-05-10T05:55:25.195Z,18.05
2018-05-10T05:56:05.602Z,18.01
2018-05-10T05:56:45.997Z,18.02
2018-05-10T05:57:26.407Z,18.16
2018-05-10T05:58:06.922Z,18.2
2018-05-10T05:58:47.848Z,18.28
2018-05-10T05:59:28.288Z,18.32
2018-05-10T06:00:09.098Z,18.35
2018-05-10T06:00:49.758Z,18.32
2018-05-10T06:01:29.895Z,18.25
2018-05-10T06:02:10.321Z,18.31
2018-05-10T06:02:51.012Z,18.39
2018-05-10T06:03:32.696Z,18.44
2018-05-10T06:04:13.630Z,18.53
2018-05-10T06:04:54.370Z,18.57
2018-05-10T06:05:34.613Z,18.56
2018-05-10T06:06:15.501Z,18.51
2018-05-10T06:06:55.947Z,18.62
2018-05-10T06:07:36.568Z,18.64
2018-05-10T06:08:17.472Z,18.74
2018-05-10T06:08:58.400Z,18.69
2018-05-10T06:09:38.821Z,18.78
2018-05-10T06:10:21.966Z,18.83
2018-05-10T06:11:02.401Z,18.79
2018-05-10T06:11:44.271Z,18.96
2018-05-10T06:12:25.416Z,19.06
2018-05-10T06:13:05.876Z,19.13
2018-05-10T06:13:46.313Z,19.21
2018-05-10T06:14:26.817Z,19.43
2018-05-10T06:15:07.486Z,19.5
2018-05-10T06:15:48.011Z,19.65
2018-05-10T06:16:28.447Z,19.72
2018-05-10T06:17:11.291Z,19.86
2018-05-10T06:17:52.395Z,20.08
2018-05-10T06:18:33.491Z,20.26
2018-05-10T06:19:14.291Z,20.44
2018-05-10T06:19:54.836Z,20.46
2018-05-10T06:20:35.184Z,20.71
2018-05-10T06:21:15.976Z,20.75
2018-05-10T06:21:56.406Z,20.82
2018-05-10T06:22:36.920Z,20.82
2018-05-10T06:23:17.282Z,20.79
2018-05-10T06:23:57.868Z,20.83
2018-05-10T06:26:00.391Z,20.75
2018-05-10T06:26:41.153Z,20.69
2018-05-10T06:27:21.802Z,20.64
2018-05-10T06:28:02.036Z,20.63
2018-05-10T06:28:42.443Z,20.64
2018-05-10T06:29:23.514Z,20.61
2018-05-10T06:30:03.955Z,20.63
2018-05-10T06:30:44.379Z,20.46
2018-05-10T06:31:24.774Z,20.58
2018-05-10T06:32:05.748Z,20.46
2018-05-10T06:32:46.171Z,20.46
2018-05-10T06:33:26.563Z,20.37
2018-05-10T06:34:07.094Z,20.38
2018-05-10T06:34:47.535Z,20.38
2018-05-10T06:35:27.876Z,20.33
2018-05-10T06:36:08.278Z,20.3
2018-05-10T06:36:48.794Z,20.3
2018-05-10T06:37:29.522Z,20.31
2018-05-10T06:38:09.953Z,20.38
2018-05-10T06:38:50.384Z,20.27
2018-05-10T06:39:30.750Z,20.33
2018-05-10T06:40:11.745Z,20.34
2018-05-10T06:40:52.202Z,20.34
2018-05-10T06:41:32.584Z,20.37
2018-05-10T06:42:15.839Z,20.4
2018-05-10T06:42:56.281Z,20.5
2018-05-10T06:43:36.705Z,20.41
2018-05-10T06:44:17.115Z,20.41
2018-05-10T06:44:57.551Z,20.46
2018-05-10T06:45:38.183Z,20.46
2018-05-10T06:46:18.789Z,20.3
2018-05-10T06:47:00.158Z,20.4
2018-05-10T06:47:43.080Z,20.46
2018-05-10T06:48:23.500Z,20.46
2018-05-10T06:49:03.901Z,20.5
2018-05-10T06:49:44.419Z,20.51
2018-05-10T06:50:25.348Z,20.68
2018-05-10T06:51:05.835Z,20.69
2018-05-10T06:51:46.297Z,20.61
2018-05-10T06:52:26.655Z,20.72
2018-05-10T06:53:07.067Z,20.69
2018-05-10T06:53:47.497Z,20.72
2018-05-10T06:54:27.956Z,20.79
2018-05-10T06:55:13.782Z,20.96
2018-05-10T06:55:51.434Z,21.26
2018-05-10T06:56:31.858Z,21.21
2018-05-10T06:57:12.453Z,21.37
2018-05-10T06:57:52.794Z,21.4
2018-05-10T06:58:33.211Z,21.56
2018-05-10T06:59:13.892Z,21.53
2018-05-10T06:59:54.363Z,21.53
2018-05-10T07:00:35.040Z,21.66
2018-05-10T07:02:32.555Z,21.73
2018-05-10T07:03:13.196Z,21.81
2018-05-10T07:03:53.938Z,21.83
2018-05-10T07:04:34.061Z,21.89
2018-05-10T07:05:14.472Z,21.93
2018-05-10T07:05:54.881Z,22.11
2018-05-10T07:06:35.324Z,22.2
2018-05-10T07:07:15.743Z,22.27
2018-05-10T07:07:56.184Z,22.38
2018-05-10T07:08:36.591Z,22.45
2018-05-10T07:09:17.106Z,22.63
2018-05-10T07:09:57.601Z,22.66
2018-05-10T07:10:37.822Z,22.72
2018-05-10T07:11:18.238Z,22.79
2018-05-10T07:13:16.342Z,22.91
2018-05-10T07:13:58.068Z,23.01
2018-05-10T07:14:38.469Z,23.12
2018-05-10T07:15:18.882Z,23.14
2018-05-10T07:15:59.569Z,23
2018-05-10T07:16:39.900Z,23.11
2018-05-10T07:17:20.330Z,23.06
2018-05-10T07:18:00.894Z,23.01
2018-05-10T07:18:41.319Z,22.93
2018-05-10T07:19:21.711Z,22.96
2018-05-10T07:20:02.158Z,22.94
2018-05-10T07:20:42.594Z,22.89
2018-05-10T07:21:23.091Z,22.91
2018-05-10T07:22:03.813Z,22.91
2018-05-10T07:22:44.240Z,22.99
2018-05-10T07:23:24.617Z,23.09
2018-05-10T07:24:05.027Z,23.12
2018-05-10T07:25:54.964Z,23.47
2018-05-10T07:26:36.717Z,23.54
2018-05-10T07:27:17.156Z,23.69
2018-05-10T07:27:57.988Z,23.68
2018-05-10T07:28:38.518Z,23.74
2018-05-10T07:29:18.973Z,23.68
2018-05-10T07:29:59.348Z,23.64
2018-05-10T07:30:39.760Z,23.79
2018-05-10T07:31:20.190Z,23.82
2018-05-10T07:32:01.562Z,23.9
2018-05-10T07:32:41.985Z,23.96
2018-05-10T07:33:22.367Z,23.97
2018-05-10T07:34:03.021Z,24.12
2018-05-10T07:34:43.531Z,24.15
2018-05-10T07:36:23.649Z,24.11
2018-05-10T07:37:13.765Z,24.08
2018-05-10T07:37:54.168Z,24.08
2018-05-10T07:38:34.546Z,24.09
2018-05-10T07:39:14.966Z,24.26
2018-05-10T07:39:55.433Z,24.31
2018-05-10T07:40:35.858Z,24.23
2018-05-10T07:41:16.273Z,24.36
2018-05-10T07:41:56.778Z,24.19
2018-05-10T07:42:37.157Z,24.19
2018-05-10T07:43:17.577Z,24.29
2018-05-10T07:43:58.326Z,24.27
2018-05-10T07:44:39.037Z,24.27
2018-05-10T07:45:19.936Z,24.33
2018-05-10T07:46:00.269Z,24.16
2018-05-10T07:46:40.800Z,24.18
2018-05-10T07:47:21.375Z,24.16
2018-05-10T07:48:01.783Z,24.08
2018-05-10T07:48:42.498Z,24.18
2018-05-10T07:49:23.124Z,24.09
2018-05-10T07:50:03.357Z,24.16
2018-05-10T07:50:43.851Z,24.12
2018-05-10T07:51:24.229Z,24.16
2018-05-10T07:52:04.654Z,23.84
2018-05-10T07:54:07.197Z,23.82
2018-05-10T07:54:49.353Z,23.82
2018-05-10T07:55:29.933Z,23.79
2018-05-10T07:56:11.682Z,23.84
2018-05-10T07:56:52.841Z,23.84
2018-05-10T07:57:33.277Z,23.86
2018-05-10T07:58:14.014Z,23.86
2018-05-10T07:58:54.434Z,23.79
2018-05-10T07:59:34.936Z,23.64
2018-05-10T08:00:15.335Z,23.49
2018-05-10T08:00:56.265Z,23.44
2018-05-10T08:01:36.675Z,23.44
2018-05-10T08:02:17.710Z,23.29
2018-05-10T08:02:58.074Z,22.93
2018-05-10T08:03:38.654Z,22.72
2018-05-10T08:04:18.942Z,22.63
2018-05-10T08:04:59.387Z,22.66
2018-05-10T08:05:39.846Z,22.63
2018-05-10T08:06:20.746Z,22.64
2018-05-10T08:07:00.859Z,22.72
2018-05-10T08:07:41.295Z,22.76
2018-05-10T08:08:21.791Z,22.78
2018-05-10T08:09:02.527Z,22.81
2018-05-10T08:09:42.936Z,22.89
2018-05-10T08:10:23.524Z,22.78
2018-05-10T08:11:03.946Z,22.84
2018-05-10T08:11:44.355Z,22.75
2018-05-10T08:12:24.782Z,22.75
2018-05-10T08:13:05.249Z,22.81
2018-05-10T08:13:45.672Z,22.94
2018-05-10T08:14:26.105Z,22.99
2018-05-10T08:15:06.551Z,23.09
2018-05-10T08:15:47.143Z,23.09
2018-05-10T08:16:27.633Z,23.26
2018-05-10T08:17:08.115Z,23.37
2018-05-10T08:17:48.465Z,23.44
2018-05-10T08:18:28.921Z,23.59
2018-05-10T08:19:09.435Z,23.69
2018-05-10T08:19:49.861Z,23.79
2018-05-10T08:20:30.359Z,23.78
2018-05-10T08:21:11.724Z,23.87
2018-05-10T08:21:53.120Z,23.78
2018-05-10T08:22:33.563Z,23.96
2018-05-10T08:23:14.111Z,23.96
2018-05-10T08:25:29.501Z,24.05
2018-05-10T08:26:11.279Z,24.15
2018-05-10T08:26:52.422Z,24.18
2018-05-10T08:27:33.043Z,24.18
2018-05-10T08:28:13.440Z,24.21
2018-05-10T08:28:53.895Z,24.34
2018-05-10T08:29:35.412Z,24.49
2018-05-10T08:30:16.103Z,24.48
2018-05-10T08:30:56.518Z,24.36
2018-05-10T08:31:37.008Z,24.33
2018-05-10T08:32:17.621Z,24.52
2018-05-10T08:32:57.985Z,24.45
2018-05-10T08:33:38.932Z,24.61
2018-05-10T08:34:19.633Z,24.55
2018-05-10T08:35:00.145Z,24.77
2018-05-10T08:35:40.578Z,24.86
2018-05-10T08:36:21.084Z,24.79
2018-05-10T08:37:02.097Z,24.87
2018-05-10T08:37:42.520Z,24.97
2018-05-10T08:38:23.015Z,24.97
2018-05-10T08:39:03.551Z,25.07
2018-05-10T08:39:44.162Z,25.05
2018-05-10T08:40:24.549Z,24.99
2018-05-10T08:41:05.019Z,25.04
2018-05-10T08:41:45.455Z,25.09
2018-05-10T08:42:25.879Z,24.97
2018-05-10T08:43:06.381Z,24.84
2018-05-10T08:43:46.794Z,24.71
2018-05-10T08:44:28.154Z,24.68
2018-05-10T08:46:40.907Z,24.46
2018-05-10T08:47:21.955Z,24.36
2018-05-10T08:48:03.032Z,24.26
2018-05-10T08:48:43.441Z,24.15
2018-05-10T08:49:23.838Z,23.93
2018-05-10T08:50:04.324Z,23.96
2018-05-10T08:50:45.571Z,23.81
2018-05-10T08:51:26.049Z,23.68
2018-05-10T08:52:06.459Z,23.38
2018-05-10T08:52:47.610Z,23.16
2018-05-10T08:53:28.481Z,23.03
2018-05-10T08:54:09.645Z,22.84
2018-05-10T08:54:50.067Z,22.94
2018-05-10T08:55:30.508Z,22.81
2018-05-10T08:56:10.946Z,22.88
2018-05-10T08:56:51.598Z,22.75
2018-05-10T08:57:32.024Z,22.61
2018-05-10T08:58:12.523Z,22.54
2018-05-10T08:58:52.968Z,22.36
2018-05-10T08:59:33.660Z,22.23
2018-05-10T09:00:14.047Z,22.09
2018-05-10T09:00:56.119Z,21.99
2018-05-10T09:01:35.889Z,21.82
2018-05-10T09:02:16.635Z,21.63
2018-05-10T09:02:56.810Z,21.55
2018-05-10T09:03:37.249Z,21.53
2018-05-10T09:06:07.649Z,21.24
2018-05-10T09:06:49.515Z,21.15
2018-05-10T09:07:30.721Z,21.15
2018-05-10T09:08:11.349Z,20.93
2018-05-10T09:08:51.759Z,20.91
2018-05-10T09:09:32.224Z,20.83
2018-05-10T09:10:12.804Z,20.82
2018-05-10T09:10:53.231Z,20.81
2018-05-10T09:11:34.770Z,20.72
2018-05-10T09:12:15.672Z,20.69
2018-05-10T09:12:56.243Z,20.58
2018-05-10T09:13:36.682Z,20.63
2018-05-10T09:14:17.098Z,20.58
2018-05-10T09:14:58.513Z,20.48
2018-05-10T09:15:38.966Z,20.34
2018-05-10T09:16:19.477Z,20.35
2018-05-10T09:16:59.858Z,20.37
2018-05-10T09:17:40.275Z,20.26
2018-05-10T09:18:20.707Z,20.34
2018-05-10T09:19:01.840Z,20.27
2018-05-10T09:19:42.474Z,20.07
2018-05-10T09:20:23.093Z,20.04
2018-05-10T09:21:04.165Z,20
2018-05-10T09:21:44.609Z,20.05
2018-05-10T09:22:25.038Z,20.02
2018-05-10T09:23:10.678Z,19.92
2018-05-10T09:23:54.416Z,19.75
2018-05-10T09:24:35.997Z,19.72
2018-05-10T09:25:16.208Z,19.78
2018-05-10T09:25:56.864Z,19.79
2018-05-10T09:26:37.328Z,19.85
2018-05-10T09:30:14.431Z,19.68
2018-05-10T09:30:55.696Z,19.58
2018-05-10T09:31:36.199Z,19.6
2018-05-10T09:32:16.480Z,19.6
2018-05-10T09:32:57.008Z,19.45
2018-05-10T09:33:37.432Z,19.47
2018-05-10T09:34:18.261Z,19.6
2018-05-10T09:34:58.603Z,19.57
2018-05-10T09:35:41.742Z,19.72
2018-05-10T09:36:22.223Z,19.79
2018-05-10T09:37:02.481Z,19.78
2018-05-10T09:37:43.202Z,19.82
2018-05-10T09:38:23.572Z,19.94
2018-05-10T09:39:04.534Z,19.97
2018-05-10T09:39:45.017Z,20.01
2018-05-10T09:40:25.457Z,20.04
2018-05-10T09:41:05.842Z,20.07
2018-05-10T09:41:46.294Z,20.19
2018-05-10T09:42:27.825Z,20.33
2018-05-10T09:43:07.533Z,20.25
2018-05-10T09:43:47.941Z,20.25
2018-05-10T09:44:28.369Z,20.31
2018-05-10T09:45:08.765Z,20.3
2018-05-10T09:45:49.148Z,20.3
2018-05-10T09:46:29.579Z,20.2
2018-05-10T09:47:09.975Z,20.12
2018-05-10T09:47:50.597Z,20.19
2018-05-10T09:48:31.079Z,20.33
2018-05-10T09:49:11.476Z,20.41
2018-05-10T09:49:51.911Z,20.48
2018-05-10T09:50:32.346Z,20.53
2018-05-10T09:51:12.834Z,20.46
2018-05-10T09:51:53.256Z,20.5
2018-05-10T09:52:34.833Z,20.53
2018-05-10T09:53:14.599Z,20.61
2018-05-10T09:53:55.113Z,20.6
2018-05-10T09:54:35.383Z,20.73
2018-05-10T09:55:15.984Z,20.73